Latest Weather Observations for Yarram Airport

IDV60801

Issued at 1:05 pm EST Thursday 31 July 2014 (issued every 30 minutes, with the page automatically refreshed every 10 minutes)

About weather observations | Map of weather stations | Latest weather observations for VIC | Other Formats
Station Details ID: 085151 Name: YARRAM AIRPORT Lat: -38.56 Lon: 146.75 Height: 17.9 m
Data from the previous 72 hours. | See also: Recent months at Yarram Airport
Date/Time
EST
Temp
°C
App
Temp
°C
Dew
Point
Rel
Hum
%
Delta-T
°C
Wind Press
QNH
hPa
Press
MSL
hPa
Rain
since 9 am
mm
Dir
 
Spd
km/h
Gust
km/h
Spd
kts
Gust
kts
31/01:00pm 18.6 4.3 4.8 40 6.7 NW 69 100 37 54 991.9 991.9 0.0
31/12:30pm 18.6 3.1 5.1 41 6.6 NW 76 106 41 57 992.1 - 0.0
31/12:21pm 18.7 3.9 5.2 41 6.6 NW 72 98 39 53 992.3 - 0.0
31/12:18pm 18.7 -0.6 4.1 38 6.9 NW 95 115 51 62 992.2 - 0.0
31/12:00pm 18.6 4.1 4.8 40 6.7 NW 70 107 38 58 993.1 993.1 0.0
31/11:51am 18.7 3.3 5.9 43 6.3 NW 76 96 41 52 993.2 - 0.0
31/11:50am 18.6 2.1 4.0 38 6.9 NW 80 96 43 52 993.2 - 0.0
31/11:49am 18.7 6.8 4.1 38 6.9 NW 56 93 30 50 993.4 - 0.0
31/11:48am 18.8 7.9 5.6 42 6.5 NW 52 74 28 40 993.9 - 0.0
31/11:42am 18.9 8.5 6.1 43 6.3 NW 50 61 27 33 994.0 - 0.0
31/11:30am 18.7 4.6 5.5 42 6.5 NW 69 106 37 57 994.2 - 0.0
31/11:00am 18.6 5.5 5.1 41 6.6 NW 63 98 34 53 995.0 995.0 0.0
31/10:30am 18.3 4.2 5.5 43 6.3 NW 69 104 37 56 995.4 - 0.0
31/10:00am 17.9 4.2 5.8 45 6.0 NW 67 102 36 55 996.0 996.0 0.0
31/09:30am 17.6 3.1 6.5 48 5.5 NW 72 111 39 60 996.6 - 0.0
31/09:28am 17.6 2.2 5.9 46 5.7 NW 76 98 41 53 996.5 - 0.0
31/09:00am 17.0 5.4 6.5 50 5.2 NW 57 87 31 47 997.6 997.6 0.0
31/08:30am 16.7 6.4 6.5 51 5.0 NW 50 74 27 40 998.4 - 0.0
31/08:00am 16.3 7.1 6.4 52 4.9 NW 44 67 24 36 998.8 998.8 0.0
31/07:30am 16.0 5.2 5.9 51 4.9 NW 52 76 28 41 999.1 - 0.0
31/07:02am 16.0 5.1 5.6 50 5.0 NW 52 70 28 38 999.4 - 0.0
31/07:00am 16.3 4.7 5.9 50 5.1 NW 56 70 30 38 999.3 999.3 0.0
31/06:58am 16.1 4.5 5.7 50 5.0 NW 56 69 30 37 999.3 - 0.0
31/06:39am 15.7 8.4 5.6 51 4.8 NW 33 57 18 31 1000.2 - 0.0
31/06:30am 15.8 8.2 6.0 52 4.8 NW 35 52 19 28 1000.4 - 0.0
31/06:04am 15.6 8.9 5.5 51 4.8 NW 30 48 16 26 1000.8 - 0.0
31/06:00am 15.3 9.7 5.2 51 4.8 NNW 24 44 13 24 1000.9 1000.9 0.0
31/05:30am 14.9 10.1 4.6 50 4.8 NW 19 37 10 20 1001.3 - 0.0
31/05:00am 15.0 8.4 4.4 49 4.9 NW 28 54 15 29 1001.9 1001.9 0.0
31/04:30am 15.7 8.4 4.7 48 5.2 NW 32 57 17 31 1002.5 - 0.0
31/04:11am 15.3 9.0 5.8 53 4.6 NW 28 54 15 29 1002.6 - 0.0
31/04:00am 15.1 9.0 6.7 57 4.1 NW 28 41 15 22 1002.8 1002.8 0.0
31/03:30am 15.3 8.7 6.1 54 4.4 WNW 30 57 16 31 1003.2 - 0.0
31/03:22am 15.4 9.3 6.7 56 4.2 WNW 28 57 15 31 1003.4 - 0.0
31/03:00am 15.5 11.1 7.3 58 4.1 WNW 20 32 11 17 1003.5 1003.5 0.0
31/02:35am 16.1 10.0 6.8 54 4.6 NW 28 48 15 26 1003.8 - 0.0
31/02:30am 15.8 11.3 6.8 55 4.4 NW 20 39 11 21 1003.9 - 0.0
31/02:21am 15.5 9.4 6.8 56 4.3 NW 28 48 15 26 1004.1 - 0.0
31/02:00am 15.6 10.3 6.9 56 4.3 NNW 24 48 13 26 1004.5 1004.5 0.0
31/01:38am 15.4 8.6 6.7 56 4.2 NW 32 50 17 27 1004.9 - 0.0
31/01:30am 15.5 8.1 6.8 56 4.3 NW 35 50 19 27 1004.9 - 0.0
31/01:06am 15.7 7.8 6.4 54 4.5 NW 37 56 20 30 1005.3 - 0.0
31/01:00am 15.9 7.6 6.1 52 4.8 NW 39 52 21 28 1005.3 1005.3 0.0
31/12:30am 16.2 7.6 6.3 52 4.8 NW 41 59 22 32 1005.2 - 0.0
31/12:08am 16.4 9.2 5.1 47 5.4 NNW 32 50 17 27 1005.4 - 0.0
31/12:00am 16.0 8.3 5.3 49 5.1 NW 35 50 19 27 1005.6 1005.6 0.0
 
Date/Time
EST
Temp
°C
App
Temp
°C
Dew
Point
Rel
Hum
%
Delta-T
°C
Wind Press
QNH
hPa
Press
MSL
hPa
Rain
since 9 am
mm
Dir
 
Spd
km/h
Gust
km/h
Spd
kts
Gust
kts
30/11:30pm 16.1 8.1 5.7 50 5.0 WNW 37 57 20 31 1006.1 - 0.0
30/11:05pm 15.8 7.1 6.0 52 4.7 NW 41 59 22 32 1006.1 - 0.0
30/11:00pm 16.0 7.0 6.4 53 4.7 NW 43 59 23 32 1006.3 1006.3 0.0
30/10:30pm 16.6 8.0 6.7 52 4.9 NW 41 61 22 33 1006.4 - 0.0
30/10:04pm 16.9 7.6 5.8 48 5.4 WNW 44 76 24 41 1006.5 - 0.0
30/10:00pm 16.4 8.0 5.7 49 5.2 WNW 39 57 21 31 1006.7 1006.7 0.0
30/09:30pm 16.6 9.0 5.6 48 5.3 WNW 35 69 19 37 1006.8 - 0.0
30/09:27pm 16.8 9.1 5.4 47 5.5 WNW 35 69 19 37 1006.6 - 0.0
30/09:08pm 16.1 9.1 6.0 51 4.9 NW 32 50 17 27 1006.9 - 0.0
30/09:00pm 16.2 9.8 6.9 54 4.6 NW 30 44 16 24 1007.1 1007.1 0.0
30/08:30pm 15.9 10.5 8.2 60 3.9 NW 26 43 14 23 1006.8 - 0.0
30/08:00pm 16.1 9.4 8.1 59 4.1 NW 33 52 18 28 1006.6 1006.6 0.0
30/07:32pm 16.5 9.4 8.0 57 4.3 WNW 35 59 19 32 1006.8 - 0.0
30/07:30pm 16.5 9.4 8.0 57 4.3 WNW 35 50 19 27 1006.9 - 0.0
30/07:03pm 16.4 8.6 8.4 59 4.1 WNW 39 59 21 32 1007.1 - 0.0
30/07:00pm 16.1 8.4 8.6 61 3.8 WNW 39 54 21 29 1007.2 1007.2 0.0
30/06:49pm 16.3 9.7 8.5 60 4.0 NW 33 61 18 33 1007.2 - 0.0
30/06:30pm 16.2 9.9 8.9 62 3.7 NW 32 44 17 24 1006.9 - 0.0
30/06:00pm 16.4 9.6 9.3 63 3.7 NW 35 48 19 26 1007.1 1007.1 0.0
30/05:30pm 16.7 10.6 9.6 63 3.7 NW 32 54 17 29 1006.9 - 0.0
30/05:13pm 16.8 10.4 9.5 62 3.8 NW 33 57 18 31 1006.8 - 0.0
30/05:00pm 16.3 10.1 9.9 66 3.4 NW 33 50 18 27 1006.9 1006.9 0.0
30/04:31pm 17.0 11.0 10.1 64 3.6 NW 32 50 17 27 1007.0 - 0.0
30/04:30pm 17.0 10.8 10.1 64 3.6 NW 33 50 18 27 1007.0 - 0.0
30/04:07pm 17.5 12.2 11.1 66 3.5 NW 30 48 16 26 1007.1 - 0.0
30/04:00pm 17.6 11.7 10.5 63 3.8 NW 32 48 17 26 1007.1 1007.1 0.0
30/03:30pm 17.9 12.1 10.8 63 3.8 NW 32 46 17 25 1007.1 - 0.0
30/03:19pm 17.8 12.7 10.7 63 3.8 NW 28 46 15 25 1006.9 - 0.0
30/03:00pm 17.9 12.7 11.5 66 3.5 WNW 30 44 16 24 1007.1 1007.1 0.0
30/02:30pm 17.8 12.4 10.9 64 3.7 NW 30 41 16 22 1007.1 - 0.0
30/02:00pm 17.0 11.5 10.4 65 3.5 NW 30 39 16 21 1007.4 1007.4 0.0
30/01:30pm 17.4 11.0 10.8 65 3.5 WNW 35 54 19 29 1007.7 - 0.0
30/01:16pm 16.8 10.1 9.5 62 3.8 WNW 35 54 19 29 1008.1 - 0.0
30/01:00pm 16.7 10.4 9.6 63 3.7 WNW 33 50 18 27 1008.3 1008.4 0.0
30/12:53pm 17.0 11.1 9.2 60 4.1 NW 30 50 16 27 1008.4 - 0.0
30/12:30pm 17.4 11.3 10.5 64 3.7 WNW 33 46 18 25 1008.6 - 0.0
30/12:00pm 16.5 9.7 10.6 68 3.1 NW 37 61 20 33 1009.2 1009.3 0.0
30/11:30am 16.1 9.5 10.0 67 3.2 WNW 35 54 19 29 1009.4 - 0.0
30/11:03am 15.7 8.9 9.4 66 3.3 WNW 35 54 19 29 1009.8 - 0.0
30/11:00am 15.8 8.2 9.2 65 3.4 WNW 39 54 21 29 1009.9 1010.0 0.0
30/10:30am 16.3 10.1 10.2 67 3.2 WNW 33 52 18 28 1010.1 - 0.0
30/10:10am 16.1 10.3 9.5 65 3.4 WNW 30 48 16 26 1010.2 - 0.0
30/10:00am 15.5 9.1 9.2 66 3.2 WNW 33 46 18 25 1010.1 1010.2 0.0
30/09:30am 14.8 9.0 9.4 70 2.8 WNW 30 61 16 33 1009.7 - 0.0
30/09:16am 14.5 9.0 9.1 70 2.8 WNW 28 48 15 26 1010.0 - 0.0
30/09:00am 14.1 9.4 9.3 73 2.5 WNW 24 37 13 20 1010.1 1010.2 1.2
30/08:30am 13.5 8.3 9.0 74 2.3 WNW 26 39 14 21 1010.0 - 1.2
30/08:00am 13.1 7.6 9.2 77 2.0 WNW 28 43 15 23 1010.0 1010.1 1.2
30/07:30am 12.3 7.1 9.0 80 1.7 WNW 26 39 14 21 1009.8 - 1.2
30/07:09am 12.7 6.7 8.8 77 2.0 WNW 30 48 16 26 1009.5 - 1.2
30/07:00am 12.4 6.0 8.7 78 1.8 WNW 32 48 17 26 1009.4 1009.5 1.2
30/06:53am 12.7 6.8 9.0 78 1.9 WNW 30 48 16 26 1009.3 - 1.2
30/06:30am 12.7 7.8 10.1 84 1.3 WNW 26 37 14 20 1009.2 - 1.2
30/06:00am 11.4 7.9 10.8 96 0.3 WNW 20 28 11 15 1009.1 1009.2 1.2
30/05:38am 12.0 4.7 10.1 88 1.0 W 39 57 21 31 1008.9 - 1.2
30/05:30am 12.6 4.4 9.8 83 1.4 W 43 59 23 32 1008.8 - 1.2
30/05:26am 12.6 4.9 10.0 84 1.3 W 41 59 22 32 1008.7 - 1.2
30/05:00am 12.5 5.6 10.2 86 1.2 WNW 37 50 20 27 1008.7 1008.8 1.2
30/04:38am 12.5 5.6 10.2 86 1.2 W 37 57 20 31 1008.8 - 1.0
30/04:30am 12.6 6.0 10.1 85 1.3 WNW 35 46 19 25 1008.7 - 1.0
30/04:00am 13.0 7.0 10.2 83 1.4 W 32 44 17 24 1008.3 1008.4 1.0
30/03:30am 13.3 6.7 10.1 81 1.7 WNW 35 54 19 29 1008.3 - 1.0
30/03:28am 13.3 6.7 10.1 81 1.7 WNW 35 54 19 29 1008.3 - 1.0
30/03:00am 13.8 6.4 9.8 77 2.1 W 39 54 21 29 1008.1 1008.1 1.0
30/02:49am 13.8 6.3 9.6 76 2.2 WNW 39 57 21 31 1008.1 - 1.0
30/02:30am 14.0 7.0 9.8 76 2.2 W 37 52 20 28 1008.2 - 1.0
30/02:00am 14.1 7.4 11.1 82 1.6 W 37 50 20 27 1008.3 1008.4 1.0
30/01:37am 14.1 7.5 11.3 83 1.5 WNW 37 57 20 31 1007.9 - 1.0
30/01:30am 13.3 7.0 11.2 87 1.1 W 35 48 19 26 1007.9 - 1.0
30/01:07am 13.9 8.0 11.2 84 1.4 WNW 33 54 18 29 1007.5 - 1.0
30/01:00am 13.3 8.5 11.5 89 1.0 WNW 28 43 15 23 1007.6 1007.6 1.0
30/12:30am 13.6 7.9 11.7 88 1.0 WNW 33 52 18 28 1007.6 - 1.0
30/12:28am 13.7 7.9 11.6 87 1.1 WNW 33 52 18 28 1007.6 - 1.0
30/12:00am 13.9 6.9 11.1 83 1.5 WNW 39 52 21 28 1007.3 1007.3 1.0
 
Date/Time
EST
Temp
°C
App
Temp
°C
Dew
Point
Rel
Hum
%
Delta-T
°C
Wind Press
QNH
hPa
Press
MSL
hPa
Rain
since 9 am
mm
Dir
 
Spd
km/h
Gust
km/h
Spd
kts
Gust
kts
29/11:44pm 13.5 8.3 11.7 89 1.0 WNW 30 48 16 26 1007.4 - 1.0
29/11:30pm 12.9 8.6 12.1 95 0.4 W 26 32 14 17 1007.7 - 1.0
29/11:00pm 13.2 10.1 12.1 93 0.6 W 20 26 11 14 1007.3 1007.3 0.0
29/10:37pm 14.6 9.8 11.7 83 1.6 WNW 28 46 15 25 1006.9 - 0.0
29/10:30pm 13.7 9.7 11.9 89 1.0 W 24 33 13 18 1007.0 - 0.0
29/10:00pm 14.8 7.8 11.2 79 1.9 WNW 39 57 21 31 1006.7 1006.7 0.0
29/09:35pm 14.9 6.8 10.9 77 2.1 NW 44 65 24 35 1006.0 - 0.0
29/09:30pm 14.7 6.8 10.7 77 2.1 NW 43 57 23 31 1006.0 - 0.0
29/09:15pm 14.4 6.4 11.0 80 1.8 NW 44 63 24 34 1006.0 - 0.0
29/09:00pm 14.8 6.9 10.8 77 2.1 WNW 43 57 23 31 1005.7 1005.7 0.0
29/08:30pm 15.5 7.0 10.5 72 2.6 WNW 46 65 25 35 1005.6 - 0.0
29/08:00pm 14.8 7.3 10.8 77 2.1 NW 41 59 22 32 1005.9 1005.9 0.0
29/07:30pm 15.3 7.6 10.1 71 2.7 WNW 41 63 22 34 1005.8 - 0.0
29/07:06pm 15.1 6.9 10.3 73 2.5 NW 44 69 24 37 1005.2 - 0.0
29/07:00pm 15.1 7.0 10.1 72 2.6 NW 43 59 23 32 1005.4 1005.4 0.0
29/06:30pm 14.6 7.6 10.0 74 2.4 WNW 37 57 20 31 1004.9 - 0.0
29/06:05pm 13.7 6.3 9.7 77 2.1 NW 39 57 21 31 1004.7 - 0.0
29/06:00pm 13.9 6.1 9.7 76 2.2 NW 41 57 22 31 1004.6 1004.6 0.0
29/05:30pm 14.8 5.8 9.0 68 3.0 NW 46 78 25 42 1004.5 - 0.0
29/05:28pm 15.2 6.6 8.9 66 3.2 NW 44 78 24 42 1004.4 - 0.0
29/05:00pm 15.3 7.1 8.1 62 3.6 NW 41 59 22 32 1003.8 1003.8 0.0
29/04:30pm 15.9 6.0 8.2 60 3.9 NW 50 72 27 39 1003.4 - 0.0
29/04:00pm 15.9 5.7 8.4 61 3.8 NW 52 70 28 38 1003.6 1003.6 0.0
29/03:30pm 16.1 7.4 8.6 61 3.8 NW 44 65 24 35 1003.3 - 0.0
29/03:00pm 16.1 7.3 8.1 59 4.1 NW 44 63 24 34 1003.5 1003.5 0.0
29/02:31pm 16.3 7.4 9.3 63 3.6 NW 46 65 25 35 1003.7 - 0.0
29/02:30pm 16.2 6.8 8.9 62 3.7 NW 48 65 26 35 1003.7 - 0.0
29/02:00pm 16.1 6.1 7.8 58 4.2 NW 50 76 27 41 1003.3 1003.3 0.0
29/01:30pm 16.0 5.8 8.5 61 3.8 NW 52 74 28 40 1003.2 - 0.0
29/01:00pm 15.9 6.8 8.4 61 3.8 NW 46 70 25 38 1003.5 1003.5 0.0
29/12:37pm 15.5 6.8 8.3 62 3.6 NW 44 63 24 34 1004.3 - 0.0
29/12:30pm 15.6 5.9 7.6 59 4.0 NW 48 63 26 34 1004.3 - 0.0
29/12:00pm 15.9 6.2 7.7 58 4.1 NW 48 69 26 37 1004.8 1004.8 0.0
29/11:30am 15.8 7.1 7.6 58 4.1 NW 43 67 23 36 1005.0 - 0.0
29/11:00am 16.1 6.1 7.8 58 4.2 NW 50 72 27 39 1005.0 1005.0 0.0
29/10:30am 15.6 6.8 7.9 60 3.9 NW 44 65 24 35 1005.1 - 0.0
29/10:03am 15.4 5.3 7.4 59 4.0 NW 50 69 27 37 1005.6 - 0.0
29/10:00am 15.8 6.1 7.3 57 4.2 NW 48 65 26 35 1005.7 1005.7 0.0
29/09:30am 15.4 6.1 7.4 59 4.0 NW 46 70 25 38 1005.7 - 0.0
29/09:08am 15.2 5.4 7.2 59 3.9 NW 48 67 26 36 1006.0 - 0.0
29/09:00am 15.2 5.0 7.0 58 4.0 NW 50 67 27 36 1006.1 1006.1 0.0
29/08:47am 14.8 4.6 6.9 59 3.9 NW 50 69 27 37 1006.0 - 0.0
29/08:30am 14.4 3.9 7.5 63 3.4 NW 52 69 28 37 1006.1 - 0.0
29/08:00am 14.0 4.7 7.5 65 3.2 NW 46 76 25 41 1006.2 1006.2 0.0
29/07:51am 14.4 4.6 7.0 61 3.6 NW 48 76 26 41 1006.2 - 0.0
29/07:31am 14.2 6.0 6.6 60 3.7 NW 39 57 21 31 1006.6 - 0.0
29/07:30am 14.6 6.1 6.9 60 3.8 NW 41 57 22 31 1006.5 - 0.0
29/07:03am 14.6 5.0 6.4 58 4.0 NW 46 65 25 35 1006.7 - 0.0
29/07:00am 14.4 5.4 6.5 59 3.8 NW 43 57 23 31 1006.6 1006.6 0.0
29/06:33am 14.4 6.5 6.3 58 3.9 WNW 37 56 20 30 1006.6 - 0.0
29/06:30am 14.5 6.6 6.3 58 3.9 NW 37 54 20 29 1006.6 - 0.0
29/06:00am 14.3 6.4 6.2 58 3.9 NW 37 61 20 33 1006.6 1006.6 0.0
29/05:30am 14.1 7.0 5.7 57 4.0 NW 32 56 17 30 1006.7 - 0.0
29/05:24am 14.2 6.6 5.8 57 4.0 NW 35 56 19 30 1006.8 - 0.0
29/05:00am 14.0 7.0 5.9 58 3.9 NW 32 48 17 26 1007.1 1007.1 0.0
29/04:30am 14.0 6.9 5.6 57 4.0 NNW 32 50 17 27 1006.8 - 0.0
29/04:00am 13.8 6.2 5.7 58 3.8 NW 35 54 19 29 1007.3 1007.3 0.0
29/03:51am 13.8 6.7 5.4 57 3.9 NW 32 54 17 29 1007.2 - 0.0
29/03:30am 13.3 6.6 5.7 60 3.6 NW 30 43 16 23 1007.4 - 0.0
29/03:09am 14.0 6.0 5.6 57 4.0 NW 37 61 20 33 1007.7 - 0.0
29/03:00am 14.0 5.6 5.6 57 4.0 NW 39 54 21 29 1007.8 1007.8 0.0
29/02:34am 13.8 6.7 5.4 57 3.9 NW 32 50 17 27 1008.5 - 0.0
29/02:30am 13.7 6.0 5.3 57 3.9 NW 35 50 19 27 1008.5 - 0.0
29/02:00am 13.8 5.9 4.4 53 4.3 NW 35 56 19 30 1009.0 1009.1 0.0
29/01:30am 14.0 6.4 4.0 51 4.6 NW 33 52 18 28 1009.0 - 0.0
29/01:10am 14.3 6.4 4.3 51 4.6 NW 35 63 19 34 1009.1 - 0.0
29/01:00am 13.7 5.8 4.3 53 4.3 NW 35 46 19 25 1009.2 1009.3 0.0
29/12:30am 14.2 7.0 4.8 53 4.4 NW 32 44 17 24 1009.7 - 0.0
29/12:00am 14.2 7.4 5.0 54 4.3 NW 30 46 16 25 1010.0 1010.1 0.0
 
Date/Time
EST
Temp
°C
App
Temp
°C
Dew
Point
Rel
Hum
%
Delta-T
°C
Wind Press
QNH
hPa
Press
MSL
hPa
Rain
since 9 am
mm
Dir
 
Spd
km/h
Gust
km/h
Spd
kts
Gust
kts
28/11:30pm 13.6 7.6 5.3 57 3.9 NW 26 35 14 19 1010.4 - 0.0
28/11:00pm 14.1 6.9 5.2 55 4.2 NW 32 41 17 22 1010.3 1010.4 0.0
28/10:30pm 14.1 8.5 5.5 56 4.1 NW 24 35 13 19 1010.8 - 0.0
28/10:00pm 13.9 9.7 5.8 58 3.8 NW 17 32 9 17 1010.7 1010.8 0.0
28/09:30pm 14.0 9.2 5.4 56 4.0 NW 20 30 11 16 1010.9 - 0.0
28/09:00pm 13.9 9.1 5.5 57 4.0 NW 20 30 11 16 1011.0 1011.1 0.0
28/08:30pm 14.1 8.5 5.2 55 4.2 WNW 24 37 13 20 1010.8 - 0.0
28/08:00pm 14.6 8.9 5.1 53 4.5 WNW 24 39 13 21 1010.4 1010.5 0.0
28/07:30pm 14.9 8.7 6.0 55 4.3 NW 28 46 15 25 1010.2 - 0.0
28/07:28pm 15.0 8.7 5.8 54 4.4 NW 28 46 15 25 1010.0 - 0.0
28/07:00pm 14.3 9.6 5.9 57 4.0 WNW 20 26 11 14 1010.5 1010.6 0.0
28/06:30pm 14.7 9.6 5.8 55 4.2 W 22 30 12 16 1010.5 - 0.0
28/06:00pm 15.0 10.3 6.0 55 4.3 NW 20 28 11 15 1010.0 1010.1 0.0
28/05:30pm 13.7 10.8 6.3 61 3.5 NW 11 17 6 9 1010.1 - 0.0
28/05:00pm 15.2 12.0 7.0 58 4.0 WNW 13 20 7 11 1010.4 1010.5 0.0
28/04:30pm 17.5 14.5 7.5 52 5.0 NW 13 20 7 11 1010.2 - 0.0
28/04:00pm 18.1 14.7 7.5 50 5.4 NW 15 20 8 11 1010.0 1010.1 0.0
28/03:30pm 18.3 13.9 7.4 49 5.5 NW 20 32 11 17 1010.1 - 0.0
28/03:00pm 18.7 13.4 6.9 46 5.9 WNW 24 33 13 18 1010.4 1010.5 0.0
28/02:30pm 18.6 11.4 6.1 44 6.2 NW 33 56 18 30 1010.6 - 0.0
28/02:27pm 18.7 12.1 5.9 43 6.3 NW 30 56 16 30 1010.6 - 0.0
28/02:00pm 18.7 12.2 6.5 45 6.1 WNW 30 43 16 23 1010.6 1010.7 0.0
28/01:30pm 18.7 12.9 6.2 44 6.2 NW 26 35 14 19 1011.0 - 0.0

Other Formats:

Comma delimited format used in spreadsheet applications
http://www.bom.gov.au/fwo/IDV60801/IDV60801.95890.axf

JavaScript Object Notation format (JSON) in row-major order
http://www.bom.gov.au/fwo/IDV60801/IDV60801.95890.json